Normandie — FNNO — position and weather

sailwx.info

Track history (hours):
 
Tides and Currents Weather Stations Pressure Air Temp Water Temp Dewpoint Dewpoint Depression Visibility Wind Speed Wind Dir Waves Ship Positions

Normandie

Operator: Brittany Ferries

Last reported at 2017-Apr-26 05:31 UTC. Time now 2017-Apr-26 05:54 UTC.
Position N 50°49' W 001°06'.

Length 161 m; beam 27 m.

Type: Passenger vessel. MMSI: 227273000.

Date/timePositionNaut miles runAvg speedWind from/ knotsBaromVisibWave heightAir tempDewpointWater temp
2017-Apr-26 05:31N 50°49' W 001°06'5 9.7
2017-Apr-26 05:01N 50°44' W 001°04'815.6
2017-Apr-26 04:30N 50°37' W 000°58'3814.7
2017-Apr-26 01:55N 50°01' W 000°39'511.8
2017-Apr-26 01:31N 49°56' W 000°37'611.9
2017-Apr-26 01:00N 49°51' W 000°33'612.3
2017-Apr-26 00:31N 49°45' W 000°29'611.9
2017-Apr-26 00:00N 49°40' W 000°26'611.8
2017-Apr-25 23:30N 49°34' W 000°22'511.0
2017-Apr-25 23:00N 49°29' W 000°19'510.6
2017-Apr-25 22:30N 49°24' W 000°17'0 0.9
2017-Apr-25 22:00N 49°24' W 000°16'4 8.1
2017-Apr-25 21:30N 49°20' W 000°14'3 5.8
2017-Apr-25 21:00N 49°17' W 000°15'0 0.0
2017-Apr-25 20:30N 49°17' W 000°15'0 0.0
2017-Apr-25 20:00N 49°17' W 000°15'0 0.0
2017-Apr-25 19:30N 49°17' W 000°15'3 5.5
2017-Apr-25 19:00N 49°20' W 000°14'918.0
2017-Apr-25 18:31N 49°29' W 000°18'918.6
2017-Apr-25 18:01N 49°37' W 000°23'918.8
2017-Apr-25 17:30N 49°46' W 000°29'1019.2
2017-Apr-25 17:01N 49°55' W 000°35'1020.0
2017-Apr-25 16:30N 50°04' W 000°42'2720.1
2017-Apr-25 15:09N 50°30' W 000°53'319.9
2017-Apr-25 15:00N 50°33' W 000°54'1019.2
2017-Apr-25 14:31N 50°42' W 000°58'8 8.1
2017-Apr-25 13:30N 50°49' W 001°06'0 0.0
2017-Apr-25 13:00N 50°49' W 001°06'0 0.0
2017-Apr-25 12:30N 50°49' W 001°06'0 0.8
2017-Apr-25 12:00N 50°49' W 001°06'510.7
2017-Apr-25 11:31N 50°44' W 001°03'917.6
2017-Apr-25 11:00N 50°36' W 000°57'3719.7
2017-Apr-25 09:08N 50°02' W 000°35'419.2
2017-Apr-25 08:57N 49°58' W 000°33'919.2
2017-Apr-25 08:30N 49°50' W 000°29'1019.2
2017-Apr-25 08:00N 49°41' W 000°25'1019.1
2017-Apr-25 07:30N 49°32' W 000°20'918.9
2017-Apr-25 07:00N 49°23' W 000°16'611.5
2017-Apr-25 06:30N 49°17' W 000°15'0 0.0
2017-Apr-25 06:00N 49°17' W 000°15'0 0.0
2017-Apr-25 05:30N 49°17' W 000°15'0 0.0
2017-Apr-25 05:00N 49°17' W 000°15'0 0.2
2017-Apr-25 04:31N 49°17' W 000°15'713.2
2017-Apr-25 04:00N 49°24' W 000°15'918.3
2017-Apr-25 03:30N 49°32' W 000°21'918.6
2017-Apr-25 03:00N 49°41' W 000°25'917.6
2017-Apr-25 02:30N 49°49' W 000°30'815.7
2017-Apr-25 02:00N 49°57' W 000°34'815.1
2017-Apr-25 01:30N 50°04' W 000°38'2615.1
2017-Apr-24 23:48N 50°28' W 000°53'515.1
2017-Apr-24 23:30N 50°32' W 000°56'815.5
2017-Apr-24 23:00N 50°39' W 000°60'714.4
2017-Apr-24 22:30N 50°46' W 001°05'3 6.4
2017-Apr-24 22:00N 50°49' W 001°06'0 0.0
2017-Apr-24 21:31N 50°49' W 001°06'0 0.0
2017-Apr-24 21:00N 50°49' W 001°06'0 0.0
2017-Apr-24 20:31N 50°49' W 001°06'2 3.1
2017-Apr-24 20:00N 50°47' W 001°06'5 9.8
2017-Apr-24 19:30N 50°43' W 001°02'817.0
2017-Apr-24 19:00N 50°35' W 000°57'1018.8
2017-Apr-24 18:30N 50°27' W 000°50'1319.2
2017-Apr-24 17:50N 50°15' W 000°42'619.2
2017-Apr-24 17:30N 50°09' W 000°40'918.9
2017-Apr-24 17:00N 49°60' W 000°37'918.9
2017-Apr-24 16:30N 49°51' W 000°32'1019.4
2017-Apr-24 16:00N 49°42' W 000°28'1019.5
2017-Apr-24 15:31N 49°33' W 000°22'1019.6
2017-Apr-24 15:01N 49°23' W 000°17'612.4
2017-Apr-24 14:30N 49°17' W 000°15'0 0.0
2017-Apr-24 13:30N 49°17' W 000°15'0 0.0
2017-Apr-24 13:00N 49°17' W 000°15'2 4.4
2017-Apr-24 12:31N 49°20' W 000°15'918.8
2017-Apr-24 12:01N 49°29' W 000°18'1019.9
2017-Apr-24 11:30N 49°38' W 000°24'1019.5
2017-Apr-24 11:01N 49°47' W 000°30'1019.7
2017-Apr-24 10:30N 49°56' W 000°34'1020.0
2017-Apr-24 10:00N 50°06' W 000°39'1720.2
2017-Apr-24 09:09N 50°22' W 000°48'520.5
2017-Apr-24 08:56N 50°26' W 000°51'920.3
2017-Apr-24 08:30N 50°34' W 000°56'918.7
2017-Apr-24 08:01N 50°43' W 001°02'713.2
2017-Apr-24 07:31N 50°49' W 001°06'0 0.7
2017-Apr-24 07:00N 50°49' W 001°06'0 0.0
2017-Apr-24 06:30N 50°49' W 001°06'0 0.0
2017-Apr-24 06:00N 50°49' W 001°06'0 0.9
2017-Apr-24 05:30N 50°49' W 001°06'611.6
2017-Apr-24 05:00N 50°44' W 001°02'816.5
2017-Apr-24 04:30N 50°36' W 000°57'814.2
2017-Apr-24 03:57N 50°29' W 000°52'1111.3
2017-Apr-24 02:59N 50°18' W 000°47'611.7
2017-Apr-24 02:30N 50°13' W 000°44'611.7
2017-Apr-24 02:00N 50°08' W 000°41'612.1
2017-Apr-24 01:30N 50°02' W 000°37'611.9
2017-Apr-24 01:00N 49°56' W 000°34'611.9
2017-Apr-24 00:30N 49°51' W 000°31'611.9
2017-Apr-24 00:00N 49°45' W 000°28'611.8
2017-Apr-23 23:30N 49°40' W 000°24'611.3
2017-Apr-23 23:00N 49°34' W 000°21'510.3
2017-Apr-23 22:30N 49°29' W 000°19'611.3
2017-Apr-23 22:00N 49°24' W 000°16'511.0
2017-Apr-23 21:30N 49°19' W 000°15'1 2.9
2017-Apr-23 21:00N 49°17' W 000°15'0 0.0
2017-Apr-23 20:30N 49°17' W 000°15'0 0.0
2017-Apr-23 20:00N 49°17' W 000°15'0 0.0
2017-Apr-23 19:30N 49°17' W 000°15'3 6.0
2017-Apr-23 19:00N 49°20' W 000°14'918.2
2017-Apr-23 18:30N 49°29' W 000°19'918.0
2017-Apr-23 18:01N 49°38' W 000°23'918.0
2017-Apr-23 17:31N 49°46' W 000°28'918.5
2017-Apr-23 17:01N 49°55' W 000°33'918.6
2017-Apr-23 16:30N 50°03' W 000°38'1020.1
2017-Apr-23 16:00N 50°13' W 000°44'1920.2
2017-Apr-23 15:04N 50°31' W 000°54'119.7
2017-Apr-23 15:00N 50°32' W 000°54'1717.2
2017-Apr-23 14:00N 50°47' W 001°06'2 3.2
2017-Apr-23 13:30N 50°49' W 001°06'0 0.0
2017-Apr-23 13:00N 50°49' W 001°06'0 0.0
2017-Apr-23 12:30N 50°49' W 001°06'0 0.2
2017-Apr-23 12:01N 50°49' W 001°06'4 8.7
2017-Apr-23 11:31N 50°44' W 001°04'918.0
2017-Apr-23 11:01N 50°37' W 000°58'4219.8
2017-Apr-23 08:52N 49°57' W 000°35'718.3
2017-Apr-23 08:30N 49°51' W 000°31'918.5
2017-Apr-23 08:01N 49°42' W 000°27'918.6
2017-Apr-23 07:31N 49°33' W 000°22'1019.5
2017-Apr-23 07:00N 49°24' W 000°17'713.4
2017-Apr-23 06:31N 49°17' W 000°15'0 0.0
2017-Apr-23 06:01N 49°17' W 000°15'0 0.0
2017-Apr-23 05:31N 49°17' W 000°15'0 0.0
2017-Apr-23 05:01N 49°17' W 000°15'0 0.1
2017-Apr-23 04:30N 49°17' W 000°15'612.6
2017-Apr-23 04:00N 49°24' W 000°15'918.6
2017-Apr-23 03:31N 49°32' W 000°20'917.9
2017-Apr-23 03:01N 49°41' W 000°25'815.5
2017-Apr-23 02:31N 49°48' W 000°30'815.5
2017-Apr-23 02:00N 49°55' W 000°34'815.5
2017-Apr-23 01:30N 50°02' W 000°38'1015.2
2017-Apr-23 00:50N 50°12' W 000°44'1115.5
2017-Apr-23 00:08N 50°22' W 000°49'215.7
2017-Apr-23 00:00N 50°24' W 000°50'815.3
2017-Apr-22 23:30N 50°31' W 000°54'815.3
2017-Apr-22 23:00N 50°38' W 000°59'714.6
2017-Apr-22 22:31N 50°45' W 001°05'4 8.3
2017-Apr-22 22:00N 50°48' W 001°07'1 1.4
2017-Apr-22 21:31N 50°49' W 001°06'0 0.0
2017-Apr-22 21:00N 50°49' W 001°06'0 0.0
2017-Apr-22 20:30N 50°49' W 001°06'1 1.9
2017-Apr-22 20:00N 50°48' W 001°07'714.8
2017-Apr-22 19:31N 50°42' W 001°01'1119.6
2017-Apr-22 18:57N 50°31' W 000°56'2519.4
2017-Apr-22 17:39N 50°08' W 000°39'319.5
2017-Apr-22 17:30N 50°05' W 000°38'919.4
2017-Apr-22 17:00N 49°56' W 000°34'917.5
2017-Apr-22 16:30N 49°48' W 000°29'917.7
2017-Apr-22 16:00N 49°40' W 000°25'917.9
2017-Apr-22 15:30N 49°31' W 000°21'917.7
2017-Apr-22 15:00N 49°23' W 000°16'511.0
2017-Apr-22 14:31N 49°17' W 000°15'0 0.0
2017-Apr-22 13:31N 49°17' W 000°15'0 0.0
2017-Apr-22 13:01N 49°17' W 000°15'1 2.8
2017-Apr-22 12:30N 49°19' W 000°15'917.5
2017-Apr-22 12:00N 49°27' W 000°18'1019.4
2017-Apr-22 11:30N 49°36' W 000°23'1019.3
2017-Apr-22 11:00N 49°45' W 000°29'1018.9
2017-Apr-22 10:30N 49°54' W 000°35'3618.9
2017-Apr-22 08:37N 50°27' W 000°53'418.7
2017-Apr-22 08:24N 50°31' W 000°55'819.1
2017-Apr-22 08:00N 50°39' W 000°59'917.7
2017-Apr-22 07:30N 50°46' W 001°06'2 4.9
2017-Apr-22 07:00N 50°49' W 001°06'0 0.0
2017-Apr-22 06:30N 50°49' W 001°06'0 0.0
2017-Apr-22 06:01N 50°49' W 001°06'0 0.2
2017-Apr-22 05:30N 50°49' W 001°06'4 8.9
2017-Apr-22 05:00N 50°44' W 001°04'816.4
2017-Apr-22 04:30N 50°37' W 000°58'713.5
2017-Apr-22 04:00N 50°31' W 000°54'1711.4
2017-Apr-22 02:29N 50°14' W 000°45'611.7
2017-Apr-22 02:00N 50°09' W 000°42'611.8
2017-Apr-22 01:30N 50°04' W 000°38'611.7
2017-Apr-22 01:00N 49°58' W 000°35'611.1
2017-Apr-22 00:30N 49°53' W 000°33'611.0
2017-Apr-22 00:00N 49°48' W 000°30'611.1
2017-Apr-21 23:30N 49°43' W 000°27'510.9
2017-Apr-21 23:00N 49°38' W 000°23'510.8
2017-Apr-21 22:30N 49°33' W 000°21'611.3
2017-Apr-21 22:00N 49°27' W 000°19'611.6
2017-Apr-21 21:30N 49°22' W 000°15'4 8.6
2017-Apr-21 21:00N 49°17' W 000°15'0 0.0
2017-Apr-21 20:30N 49°17' W 000°15'0 0.0
2017-Apr-21 20:00N 49°17' W 000°15'0 0.0
2017-Apr-21 19:30N 49°17' W 000°15'3 6.5
2017-Apr-21 19:01N 49°21' W 000°14'917.5
2017-Apr-21 18:30N 49°29' W 000°18'917.3
2017-Apr-21 18:00N 49°37' W 000°22'917.3
2017-Apr-21 17:31N 49°45' W 000°26'918.8
2017-Apr-21 17:00N 49°54' W 000°31'1019.9
2017-Apr-21 16:30N 50°03' W 000°38'2520.1
2017-Apr-21 15:15N 50°27' W 000°53'520.0
2017-Apr-21 15:00N 50°31' W 000°55'1019.2
2017-Apr-21 14:31N 50°40' W 000°60'9 9.1
2017-Apr-21 13:30N 50°49' W 001°06'0 0.0
2017-Apr-21 13:00N 50°49' W 001°06'0 0.0
2017-Apr-21 12:30N 50°49' W 001°06'0 0.2
2017-Apr-21 12:00N 50°49' W 001°06'4 8.0
2017-Apr-21 11:30N 50°45' W 001°05'714.0
2017-Apr-21 11:00N 50°39' W 000°58'1019.8
2017-Apr-21 10:30N 50°29' W 000°54'1020.0
2017-Apr-21 10:00N 50°20' W 000°49'1020.4
2017-Apr-21 09:30N 50°11' W 000°43'1020.6
2017-Apr-21 09:00N 50°01' W 000°37'1020.5
2017-Apr-21 08:31N 49°52' W 000°31'1020.2
2017-Apr-21 08:00N 49°42' W 000°25'1019.4
2017-Apr-21 07:30N 49°33' W 000°20'1020.0
2017-Apr-21 07:01N 49°23' W 000°16'612.3
2017-Apr-21 06:30N 49°17' W 000°15'0 0.0
2017-Apr-21 06:01N 49°17' W 000°15'0 0.0
2017-Apr-21 05:30N 49°17' W 000°15'0 0.0
2017-Apr-21 05:01N 49°17' W 000°15'0 0.0
2017-Apr-21 04:31N 49°17' W 000°15'510.9
2017-Apr-21 04:01N 49°23' W 000°14'816.8
2017-Apr-21 03:30N 49°30' W 000°20'815.9
2017-Apr-21 03:00N 49°38' W 000°23'815.9
2017-Apr-21 02:30N 49°45' W 000°28'815.8
2017-Apr-21 02:01N 49°53' W 000°31'714.9
2017-Apr-21 01:30N 49°60' W 000°36'714.9
2017-Apr-21 01:00N 50°07' W 000°40'714.7
2017-Apr-21 00:30N 50°14' W 000°43'815.4
2017-Apr-21 00:00N 50°21' W 000°48'815.5
2017-Apr-20 23:28N 50°29' W 000°52'715.2
2017-Apr-20 23:00N 50°35' W 000°57'715.0
2017-Apr-20 22:30N 50°42' W 001°01'713.0
2017-Apr-20 22:00N 50°48' W 001°07'1 2.5
2017-Apr-20 21:31N 50°49' W 001°06'0 0.0
2017-Apr-20 21:00N 50°49' W 001°06'0 0.0
2017-Apr-20 20:31N 50°49' W 001°06'0 0.1
2017-Apr-20 20:00N 50°49' W 001°06'5 9.1
2017-Apr-20 19:30N 50°44' W 001°04'917.9
2017-Apr-20 19:00N 50°36' W 000°57'919.0
2017-Apr-20 18:30N 50°28' W 000°50'1919.0
2017-Apr-20 17:31N 50°11' W 000°39'619.8
2017-Apr-20 17:14N 50°05' W 000°36'519.8
2017-Apr-20 17:00N 50°01' W 000°34'1019.5
2017-Apr-20 16:31N 49°52' W 000°29'1019.7
2017-Apr-20 16:00N 49°43' W 000°23'1019.6
2017-Apr-20 15:31N 49°33' W 000°19'1019.7
2017-Apr-20 15:01N 49°24' W 000°16'6 6.5
2017-Apr-20 14:00N 49°17' W 000°15'0 0.0
2017-Apr-20 13:30N 49°17' W 000°15'0 0.0
2017-Apr-20 13:00N 49°17' W 000°15'1 1.3
2017-Apr-20 12:31N 49°18' W 000°15'917.9
2017-Apr-20 12:00N 49°27' W 000°18'1020.3
2017-Apr-20 11:30N 49°36' W 000°24'1020.1
2017-Apr-20 11:00N 49°45' W 000°30'1019.8
2017-Apr-20 10:30N 49°54' W 000°36'1119.7
2017-Apr-20 09:57N 50°04' W 000°44'2819.9
2017-Apr-20 08:33N 50°31' W 000°57'120.1
2017-Apr-20 08:31N 50°32' W 000°57'1019.7
2017-Apr-20 08:00N 50°41' W 001°00'714.7
2017-Apr-20 07:30N 50°47' W 001°07'1 2.8
2017-Apr-20 07:00N 50°49' W 001°06'0 0.0
2017-Apr-20 06:30N 50°49' W 001°06'0 0.0
2017-Apr-20 06:00N 50°49' W 001°06'0 0.2
2017-Apr-20 05:30N 50°49' W 001°06'3 7.0
2017-Apr-20 05:00N 50°45' W 001°05'816.6
2017-Apr-20 04:30N 50°38' W 000°58'815.6
2017-Apr-20 04:00N 50°31' W 000°53'2215.4
2017-Apr-20 02:33N 50°10' W 000°40'315.4
2017-Apr-20 02:20N 50°07' W 000°38'515.4
2017-Apr-20 02:00N 50°02' W 000°36'815.4
2017-Apr-20 01:30N 49°55' W 000°32'815.7
2017-Apr-20 01:00N 49°47' W 000°29'714.0
2017-Apr-20 00:30N 49°41' W 000°26'611.7
2017-Apr-20 00:00N 49°35' W 000°25'611.0
2017-Apr-19 23:30N 49°30' W 000°27'510.0
2017-Apr-19 23:01N 49°28' W 000°35'4 7.2
2017-Apr-19 22:31N 49°26' W 000°30'611.6
2017-Apr-19 22:01N 49°25' W 000°21'510.8
2017-Apr-19 21:31N 49°21' W 000°15'4 8.2
2017-Apr-19 21:00N 49°17' W 000°15'0 0.0
2017-Apr-19 20:30N 49°17' W 000°15'0 0.0
2017-Apr-19 20:00N 49°17' W 000°15'0 0.0
2017-Apr-19 19:30N 49°17' W 000°15'0 0.0
2017-Apr-19 19:00N 49°17' W 000°15'0 0.0
2017-Apr-19 18:30N 49°17' W 000°15'0 0.0
2017-Apr-19 18:00N 49°17' W 000°15'0 0.0
2017-Apr-19 17:30N 49°17' W 000°15'0 0.0
2017-Apr-19 17:00N 49°17' W 000°15'0 0.0
2017-Apr-19 16:30N 49°17' W 000°15'0 0.0
2017-Apr-19 16:00N 49°17' W 000°15'0 0.0
2017-Apr-19 15:30N 49°17' W 000°15'0 0.0
2017-Apr-19 15:00N 49°17' W 000°15'0 0.0
2017-Apr-19 14:30N 49°17' W 000°15'0 0.0
2017-Apr-19 13:30N 49°17' W 000°15'0 0.2
2017-Apr-19 13:00N 49°17' W 000°15'816.1
2017-Apr-19 12:31N 49°25' W 000°15'1020.4
2017-Apr-19 12:00N 49°35' W 000°20'1020.3
2017-Apr-19 11:31N 49°44' W 000°26'1020.4
2017-Apr-19 11:00N 49°54' W 000°31'1020.2
2017-Apr-19 10:30N 50°04' W 000°36'2319.9
2017-Apr-19 09:21N 50°25' W 000°50'819.6
2017-Apr-19 08:57N 50°32' W 000°55'919.6
2017-Apr-19 08:31N 50°40' W 000°58'816.1
2017-Apr-19 08:01N 50°47' W 001°06'2 3.9
2017-Apr-19 07:31N 50°49' W 001°06'0 0.0
2017-Apr-19 07:00N 50°49' W 001°06'0 0.0
2017-Apr-19 06:30N 50°49' W 001°06'0 0.0
2017-Apr-19 06:00N 50°49' W 001°06'0 0.2
2017-Apr-19 05:31N 50°49' W 001°06'3 6.8
2017-Apr-19 05:01N 50°45' W 001°05'917.2
2017-Apr-19 04:30N 50°38' W 000°59'815.7
2017-Apr-19 04:00N 50°30' W 000°55'3012.6
2017-Apr-19 01:40N 50°02' W 000°39'311.0
2017-Apr-19 01:24N 49°60' W 000°38'411.0
2017-Apr-19 01:00N 49°56' W 000°35'511.0
2017-Apr-19 00:30N 49°50' W 000°33'611.2
2017-Apr-19 00:00N 49°45' W 000°30'611.1
2017-Apr-18 23:30N 49°40' W 000°27'510.8
2017-Apr-18 23:00N 49°35' W 000°23'611.2
2017-Apr-18 22:30N 49°30' W 000°20'611.8
2017-Apr-18 22:00N 49°25' W 000°17'611.4
2017-Apr-18 21:31N 49°19' W 000°15'2 3.3
2017-Apr-18 21:00N 49°17' W 000°15'0 0.0
2017-Apr-18 20:30N 49°17' W 000°15'0 0.0
2017-Apr-18 20:00N 49°17' W 000°15'0 0.0
2017-Apr-18 19:30N 49°17' W 000°15'4 7.7
2017-Apr-18 19:01N 49°21' W 000°14'919.0
2017-Apr-18 18:30N 49°30' W 000°18'1019.5
2017-Apr-18 18:00N 49°40' W 000°22'1019.4
2017-Apr-18 17:31N 49°49' W 000°27'1019.6
2017-Apr-18 17:00N 49°58' W 000°31'1019.7
2017-Apr-18 16:30N 50°08' W 000°36'2120.0
2017-Apr-18 15:26N 50°27' W 000°49'920.0
2017-Apr-18 15:00N 50°35' W 000°54'918.4
2017-Apr-18 14:30N 50°43' W 001°02'6 6.1
2017-Apr-18 13:31N 50°49' W 001°06'0 0.0
2017-Apr-18 13:00N 50°49' W 001°06'0 0.0
2017-Apr-18 12:31N 50°49' W 001°06'0 0.9
2017-Apr-18 12:00N 50°49' W 001°07'510.2
2017-Apr-18 11:30N 50°44' W 001°04'918.3
2017-Apr-18 11:00N 50°36' W 000°56'1019.4
2017-Apr-18 10:28N 50°26' W 000°50'2819.7
2017-Apr-18 09:04N 49°60' W 000°38'120.3
2017-Apr-18 09:00N 49°59' W 000°37'1020.1
2017-Apr-18 08:30N 49°49' W 000°31'1020.4
2017-Apr-18 08:00N 49°40' W 000°26'1020.0
2017-Apr-18 07:31N 49°30' W 000°21'1020.3
2017-Apr-18 07:00N 49°21' W 000°15'4 7.3
2017-Apr-18 06:30N 49°17' W 000°15'0 0.0
2017-Apr-18 06:00N 49°17' W 000°15'0 0.0
2017-Apr-18 05:30N 49°17' W 000°15'0 0.0
2017-Apr-18 05:00N 49°17' W 000°15'0 0.3
2017-Apr-18 04:30N 49°17' W 000°15'714.7
2017-Apr-18 04:00N 49°25' W 000°14'917.0
2017-Apr-18 03:30N 49°32' W 000°19'917.3
2017-Apr-18 03:01N 49°41' W 000°24'917.7
2017-Apr-18 02:31N 49°49' W 000°29'917.8
2017-Apr-18 02:00N 49°57' W 000°34'917.9
2017-Apr-18 01:30N 50°05' W 000°38'2317.3
2017-Apr-18 00:11N 50°27' W 000°51'416.8
2017-Apr-17 23:55N 50°31' W 000°54'716.7
2017-Apr-17 23:30N 50°37' W 000°58'713.8
2017-Apr-17 23:00N 50°43' W 001°03'611.2
2017-Apr-17 22:31N 50°48' W 001°07'1 1.4
2017-Apr-17 22:00N 50°49' W 001°06'0 0.0
2017-Apr-17 21:31N 50°49' W 001°06'0 0.0
2017-Apr-17 21:01N 50°49' W 001°06'1 1.1
2017-Apr-17 20:30N 50°49' W 001°07'4 8.4
2017-Apr-17 20:01N 50°45' W 001°05'714.8
2017-Apr-17 19:30N 50°38' W 000°58'1020.2
2017-Apr-17 19:00N 50°29' W 000°53'2820.6
2017-Apr-17 17:38N 50°03' W 000°34'321.0
2017-Apr-17 17:30N 50°01' W 000°33'1020.8
2017-Apr-17 17:00N 49°51' W 000°27'1020.5
2017-Apr-17 16:30N 49°41' W 000°23'1020.4
2017-Apr-17 16:00N 49°31' W 000°19'1020.1
2017-Apr-17 15:30N 49°22' W 000°15'4 8.5
2017-Apr-17 15:01N 49°17' W 000°15'0 0.0
2017-Apr-17 14:30N 49°17' W 000°15'0 0.0
2017-Apr-17 13:30N 49°17' W 000°15'0 0.0
2017-Apr-17 13:01N 49°17' W 000°15'1 2.0
2017-Apr-17 12:31N 49°18' W 000°15'917.4
2017-Apr-17 12:00N 49°27' W 000°17'1019.1
2017-Apr-17 11:30N 49°36' W 000°23'1019.3
2017-Apr-17 11:01N 49°44' W 000°29'1019.5
2017-Apr-17 10:30N 49°53' W 000°35'1020.7
2017-Apr-17 10:00N 50°03' W 000°41'1620.6
2017-Apr-17 09:13N 50°19' W 000°49'920.4
2017-Apr-17 08:47N 50°27' W 000°52'620.1
2017-Apr-17 08:30N 50°32' W 000°55'1019.2
2017-Apr-17 08:01N 50°42' W 000°58'714.7
2017-Apr-17 07:30N 50°47' W 001°06'2 3.6
2017-Apr-17 07:00N 50°49' W 001°06'0 0.0
2017-Apr-17 06:30N 50°49' W 001°06'0 0.0
2017-Apr-17 06:00N 50°49' W 001°06'0 0.2
2017-Apr-17 05:31N 50°49' W 001°06'4 7.5
2017-Apr-17 05:00N 50°45' W 001°05'816.8
2017-Apr-17 04:31N 50°38' W 000°58'815.2
2017-Apr-17 04:00N 50°31' W 000°53'2915.3
2017-Apr-17 02:05N 50°03' W 000°37'215.3
2017-Apr-17 01:59N 50°02' W 000°37'715.2
2017-Apr-17 01:30N 49°55' W 000°33'613.1
2017-Apr-17 01:01N 49°49' W 000°30'611.0
2017-Apr-17 00:30N 49°44' W 000°27'611.2
2017-Apr-17 00:01N 49°39' W 000°23'611.6
2017-Apr-16 23:30N 49°33' W 000°20'611.3
2017-Apr-16 23:01N 49°28' W 000°17'611.0
2017-Apr-16 22:30N 49°22' W 000°15'510.4
2017-Apr-16 22:00N 49°17' W 000°15'0 0.1
2017-Apr-16 21:30N 49°17' W 000°15'0 0.0
2017-Apr-16 21:00N 49°17' W 000°15'0 0.0
2017-Apr-16 20:30N 49°17' W 000°15'0 0.0
2017-Apr-16 20:00N 49°17' W 000°15'0 0.3
2017-Apr-16 19:30N 49°17' W 000°15'815.8
2017-Apr-16 19:01N 49°25' W 000°16'1019.6
2017-Apr-16 18:31N 49°34' W 000°22'1019.5
2017-Apr-16 18:00N 49°43' W 000°28'1019.5
2017-Apr-16 17:30N 49°53' W 000°33'1019.3
2017-Apr-16 17:00N 50°02' W 000°38'1019.5
2017-Apr-16 16:31N 50°11' W 000°43'1019.8
2017-Apr-16 15:59N 50°21' W 000°47'1019.9
2017-Apr-16 15:30N 50°30' W 000°52'1019.4
2017-Apr-16 15:01N 50°39' W 000°58'1111.1
2017-Apr-16 14:00N 50°49' W 001°06'0 0.0
2017-Apr-16 13:30N 50°49' W 001°06'0 0.0
2017-Apr-16 13:00N 50°49' W 001°06'0 0.0
2017-Apr-16 12:30N 50°49' W 001°06'2 4.0
2017-Apr-16 12:00N 50°47' W 001°06'612.9
2017-Apr-16 11:30N 50°41' W 001°01'918.6
2017-Apr-16 11:00N 50°32' W 000°56'3218.3
2017-Apr-16 09:16N 50°03' W 000°36'519.4
2017-Apr-16 09:00N 49°59' W 000°33'1019.4
2017-Apr-16 08:30N 49°49' W 000°29'1019.7
2017-Apr-16 08:00N 49°40' W 000°25'1019.8
2017-Apr-16 07:31N 49°30' W 000°20'1019.9
2017-Apr-16 07:01N 49°21' W 000°15'4 7.4
2017-Apr-16 06:30N 49°17' W 000°15'0 0.0
2017-Apr-16 06:00N 49°17' W 000°15'  
Track history (hours):
 
Tides and Currents Weather Stations Pressure Air Temp Water Temp Dewpoint Dewpoint Depression Visibility Wind Speed Wind Dir Waves Ship Positions

Normandie

Operator: Brittany Ferries

Last reported at 2017-Apr-26 05:31 UTC. Time now 2017-Apr-26 05:54 UTC.
Position N 50°49' W 001°06'.

Length 161 m; beam 27 m.

Type: Passenger vessel. MMSI: 227273000.

Date/timePositionNaut miles runAvg speedWind from/ knotsBaromVisibWave heightAir tempDewpointWater temp
2017-Apr-26 05:31N 50°49' W 001°06'5 9.7
2017-Apr-26 05:01N 50°44' W 001°04'815.6
2017-Apr-26 04:30N 50°37' W 000°58'3814.7
2017-Apr-26 01:55N 50°01' W 000°39'511.8
2017-Apr-26 01:31N 49°56' W 000°37'611.9
2017-Apr-26 01:00N 49°51' W 000°33'612.3
2017-Apr-26 00:31N 49°45' W 000°29'611.9
2017-Apr-26 00:00N 49°40' W 000°26'611.8
2017-Apr-25 23:30N 49°34' W 000°22'511.0
2017-Apr-25 23:00N 49°29' W 000°19'510.6
2017-Apr-25 22:30N 49°24' W 000°17'0 0.9
2017-Apr-25 22:00N 49°24' W 000°16'4 8.1
2017-Apr-25 21:30N 49°20' W 000°14'3 5.8
2017-Apr-25 21:00N 49°17' W 000°15'0 0.0
2017-Apr-25 20:30N 49°17' W 000°15'0 0.0
2017-Apr-25 20:00N 49°17' W 000°15'0 0.0
2017-Apr-25 19:30N 49°17' W 000°15'3 5.5
2017-Apr-25 19:00N 49°20' W 000°14'918.0
2017-Apr-25 18:31N 49°29' W 000°18'918.6
2017-Apr-25 18:01N 49°37' W 000°23'918.8
2017-Apr-25 17:30N 49°46' W 000°29'1019.2
2017-Apr-25 17:01N 49°55' W 000°35'1020.0
2017-Apr-25 16:30N 50°04' W 000°42'2720.1
2017-Apr-25 15:09N 50°30' W 000°53'319.9
2017-Apr-25 15:00N 50°33' W 000°54'1019.2
2017-Apr-25 14:31N 50°42' W 000°58'8 8.1
2017-Apr-25 13:30N 50°49' W 001°06'0 0.0
2017-Apr-25 13:00N 50°49' W 001°06'0 0.0
2017-Apr-25 12:30N 50°49' W 001°06'0 0.8
2017-Apr-25 12:00N 50°49' W 001°06'510.7
2017-Apr-25 11:31N 50°44' W 001°03'917.6
2017-Apr-25 11:00N 50°36' W 000°57'3719.7
2017-Apr-25 09:08N 50°02' W 000°35'419.2
2017-Apr-25 08:57N 49°58' W 000°33'919.2
2017-Apr-25 08:30N 49°50' W 000°29'1019.2
2017-Apr-25 08:00N 49°41' W 000°25'1019.1
2017-Apr-25 07:30N 49°32' W 000°20'918.9
2017-Apr-25 07:00N 49°23' W 000°16'611.5
2017-Apr-25 06:30N 49°17' W 000°15'0 0.0
2017-Apr-25 06:00N 49°17' W 000°15'0 0.0
2017-Apr-25 05:30N 49°17' W 000°15'0 0.0
2017-Apr-25 05:00N 49°17' W 000°15'0 0.2
2017-Apr-25 04:31N 49°17' W 000°15'713.2
2017-Apr-25 04:00N 49°24' W 000°15'918.3
2017-Apr-25 03:30N 49°32' W 000°21'918.6
2017-Apr-25 03:00N 49°41' W 000°25'917.6
2017-Apr-25 02:30N 49°49' W 000°30'815.7
2017-Apr-25 02:00N 49°57' W 000°34'815.1
2017-Apr-25 01:30N 50°04' W 000°38'2615.1
2017-Apr-24 23:48N 50°28' W 000°53'515.1
2017-Apr-24 23:30N 50°32' W 000°56'815.5
2017-Apr-24 23:00N 50°39' W 000°60'714.4
2017-Apr-24 22:30N 50°46' W 001°05'3 6.4
2017-Apr-24 22:00N 50°49' W 001°06'0 0.0
2017-Apr-24 21:31N 50°49' W 001°06'0 0.0
2017-Apr-24 21:00N 50°49' W 001°06'0 0.0
2017-Apr-24 20:31N 50°49' W 001°06'2 3.1
2017-Apr-24 20:00N 50°47' W 001°06'5 9.8
2017-Apr-24 19:30N 50°43' W 001°02'817.0
2017-Apr-24 19:00N 50°35' W 000°57'1018.8
2017-Apr-24 18:30N 50°27' W 000°50'1319.2
2017-Apr-24 17:50N 50°15' W 000°42'619.2
2017-Apr-24 17:30N 50°09' W 000°40'918.9
2017-Apr-24 17:00N 49°60' W 000°37'918.9
2017-Apr-24 16:30N 49°51' W 000°32'1019.4
2017-Apr-24 16:00N 49°42' W 000°28'1019.5
2017-Apr-24 15:31N 49°33' W 000°22'1019.6
2017-Apr-24 15:01N 49°23' W 000°17'612.4
2017-Apr-24 14:30N 49°17' W 000°15'0 0.0
2017-Apr-24 13:30N 49°17' W 000°15'0 0.0
2017-Apr-24 13:00N 49°17' W 000°15'2 4.4
2017-Apr-24 12:31N 49°20' W 000°15'918.8
2017-Apr-24 12:01N 49°29' W 000°18'1019.9
2017-Apr-24 11:30N 49°38' W 000°24'1019.5
2017-Apr-24 11:01N 49°47' W 000°30'1019.7
2017-Apr-24 10:30N 49°56' W 000°34'1020.0
2017-Apr-24 10:00N 50°06' W 000°39'1720.2
2017-Apr-24 09:09N 50°22' W 000°48'520.5
2017-Apr-24 08:56N 50°26' W 000°51'920.3
2017-Apr-24 08:30N 50°34' W 000°56'918.7
2017-Apr-24 08:01N 50°43' W 001°02'713.2
2017-Apr-24 07:31N 50°49' W 001°06'0 0.7
2017-Apr-24 07:00N 50°49' W 001°06'0 0.0
2017-Apr-24 06:30N 50°49' W 001°06'0 0.0
2017-Apr-24 06:00N 50°49' W 001°06'0 0.9
2017-Apr-24 05:30N 50°49' W 001°06'611.6
2017-Apr-24 05:00N 50°44' W 001°02'816.5
2017-Apr-24 04:30N 50°36' W 000°57'814.2
2017-Apr-24 03:57N 50°29' W 000°52'1111.3
2017-Apr-24 02:59N 50°18' W 000°47'611.7
2017-Apr-24 02:30N 50°13' W 000°44'611.7
2017-Apr-24 02:00N 50°08' W 000°41'612.1
2017-Apr-24 01:30N 50°02' W 000°37'611.9
2017-Apr-24 01:00N 49°56' W 000°34'611.9
2017-Apr-24 00:30N 49°51' W 000°31'611.9
2017-Apr-24 00:00N 49°45' W 000°28'611.8
2017-Apr-23 23:30N 49°40' W 000°24'611.3
2017-Apr-23 23:00N 49°34' W 000°21'510.3
2017-Apr-23 22:30N 49°29' W 000°19'611.3
2017-Apr-23 22:00N 49°24' W 000°16'511.0
2017-Apr-23 21:30N 49°19' W 000°15'1 2.9
2017-Apr-23 21:00N 49°17' W 000°15'0 0.0
2017-Apr-23 20:30N 49°17' W 000°15'0 0.0
2017-Apr-23 20:00N 49°17' W 000°15'0 0.0
2017-Apr-23 19:30N 49°17' W 000°15'3 6.0
2017-Apr-23 19:00N 49°20' W 000°14'918.2
2017-Apr-23 18:30N 49°29' W 000°19'918.0
2017-Apr-23 18:01N 49°38' W 000°23'918.0
2017-Apr-23 17:31N 49°46' W 000°28'918.5
2017-Apr-23 17:01N 49°55' W 000°33'918.6
2017-Apr-23 16:30N 50°03' W 000°38'1020.1
2017-Apr-23 16:00N 50°13' W 000°44'1920.2
2017-Apr-23 15:04N 50°31' W 000°54'119.7
2017-Apr-23 15:00N 50°32' W 000°54'1717.2
2017-Apr-23 14:00N 50°47' W 001°06'2 3.2
2017-Apr-23 13:30N 50°49' W 001°06'0 0.0
2017-Apr-23 13:00N 50°49' W 001°06'0 0.0
2017-Apr-23 12:30N 50°49' W 001°06'0 0.2
2017-Apr-23 12:01N 50°49' W 001°06'4 8.7
2017-Apr-23 11:31N 50°44' W 001°04'918.0
2017-Apr-23 11:01N 50°37' W 000°58'4219.8
2017-Apr-23 08:52N 49°57' W 000°35'718.3
2017-Apr-23 08:30N 49°51' W 000°31'918.5
2017-Apr-23 08:01N 49°42' W 000°27'918.6
2017-Apr-23 07:31N 49°33' W 000°22'1019.5
2017-Apr-23 07:00N 49°24' W 000°17'713.4
2017-Apr-23 06:31N 49°17' W 000°15'0 0.0
2017-Apr-23 06:01N 49°17' W 000°15'0 0.0
2017-Apr-23 05:31N 49°17' W 000°15'0 0.0
2017-Apr-23 05:01N 49°17' W 000°15'0 0.1
2017-Apr-23 04:30N 49°17' W 000°15'612.6
2017-Apr-23 04:00N 49°24' W 000°15'918.6
2017-Apr-23 03:31N 49°32' W 000°20'917.9
2017-Apr-23 03:01N 49°41' W 000°25'815.5
2017-Apr-23 02:31N 49°48' W 000°30'815.5
2017-Apr-23 02:00N 49°55' W 000°34'815.5
2017-Apr-23 01:30N 50°02' W 000°38'1015.2
2017-Apr-23 00:50N 50°12' W 000°44'1115.5
2017-Apr-23 00:08N 50°22' W 000°49'215.7
2017-Apr-23 00:00N 50°24' W 000°50'815.3
2017-Apr-22 23:30N 50°31' W 000°54'815.3
2017-Apr-22 23:00N 50°38' W 000°59'714.6
2017-Apr-22 22:31N 50°45' W 001°05'4 8.3
2017-Apr-22 22:00N 50°48' W 001°07'1 1.4
2017-Apr-22 21:31N 50°49' W 001°06'0 0.0
2017-Apr-22 21:00N 50°49' W 001°06'0 0.0
2017-Apr-22 20:30N 50°49' W 001°06'1 1.9
2017-Apr-22 20:00N 50°48' W 001°07'714.8
2017-Apr-22 19:31N 50°42' W 001°01'1119.6
2017-Apr-22 18:57N 50°31' W 000°56'2519.4
2017-Apr-22 17:39N 50°08' W 000°39'319.5
2017-Apr-22 17:30N 50°05' W 000°38'919.4
2017-Apr-22 17:00N 49°56' W 000°34'917.5
2017-Apr-22 16:30N 49°48' W 000°29'917.7
2017-Apr-22 16:00N 49°40' W 000°25'917.9
2017-Apr-22 15:30N 49°31' W 000°21'917.7
2017-Apr-22 15:00N 49°23' W 000°16'511.0
2017-Apr-22 14:31N 49°17' W 000°15'0 0.0
2017-Apr-22 13:31N 49°17' W 000°15'0 0.0
2017-Apr-22 13:01N 49°17' W 000°15'1 2.8
2017-Apr-22 12:30N 49°19' W 000°15'917.5
2017-Apr-22 12:00N 49°27' W 000°18'1019.4
2017-Apr-22 11:30N 49°36' W 000°23'1019.3
2017-Apr-22 11:00N 49°45' W 000°29'1018.9
2017-Apr-22 10:30N 49°54' W 000°35'3618.9
2017-Apr-22 08:37N 50°27' W 000°53'418.7
2017-Apr-22 08:24N 50°31' W 000°55'819.1
2017-Apr-22 08:00N 50°39' W 000°59'917.7
2017-Apr-22 07:30N 50°46' W 001°06'2 4.9
2017-Apr-22 07:00N 50°49' W 001°06'0 0.0
2017-Apr-22 06:30N 50°49' W 001°06'0 0.0
2017-Apr-22 06:01N 50°49' W 001°06'0 0.2
2017-Apr-22 05:30N 50°49' W 001°06'4 8.9
2017-Apr-22 05:00N 50°44' W 001°04'816.4
2017-Apr-22 04:30N 50°37' W 000°58'713.5
2017-Apr-22 04:00N 50°31' W 000°54'1711.4
2017-Apr-22 02:29N 50°14' W 000°45'611.7
2017-Apr-22 02:00N 50°09' W 000°42'611.8
2017-Apr-22 01:30N 50°04' W 000°38'611.7
2017-Apr-22 01:00N 49°58' W 000°35'611.1
2017-Apr-22 00:30N 49°53' W 000°33'611.0
2017-Apr-22 00:00N 49°48' W 000°30'611.1
2017-Apr-21 23:30N 49°43' W 000°27'510.9
2017-Apr-21 23:00N 49°38' W 000°23'510.8
2017-Apr-21 22:30N 49°33' W 000°21'611.3
2017-Apr-21 22:00N 49°27' W 000°19'611.6
2017-Apr-21 21:30N 49°22' W 000°15'4 8.6
2017-Apr-21 21:00N 49°17' W 000°15'0 0.0
2017-Apr-21 20:30N 49°17' W 000°15'0 0.0
2017-Apr-21 20:00N 49°17' W 000°15'0 0.0
2017-Apr-21 19:30N 49°17' W 000°15'3 6.5
2017-Apr-21 19:01N 49°21' W 000°14'917.5
2017-Apr-21 18:30N 49°29' W 000°18'917.3
2017-Apr-21 18:00N 49°37' W 000°22'917.3
2017-Apr-21 17:31N 49°45' W 000°26'918.8
2017-Apr-21 17:00N 49°54' W 000°31'1019.9
2017-Apr-21 16:30N 50°03' W 000°38'2520.1
2017-Apr-21 15:15N 50°27' W 000°53'520.0
2017-Apr-21 15:00N 50°31' W 000°55'1019.2
2017-Apr-21 14:31N 50°40' W 000°60'9 9.1
2017-Apr-21 13:30N 50°49' W 001°06'0 0.0
2017-Apr-21 13:00N 50°49' W 001°06'0 0.0
2017-Apr-21 12:30N 50°49' W 001°06'0 0.2
2017-Apr-21 12:00N 50°49' W 001°06'4 8.0
2017-Apr-21 11:30N 50°45' W 001°05'714.0
2017-Apr-21 11:00N 50°39' W 000°58'1019.8
2017-Apr-21 10:30N 50°29' W 000°54'1020.0
2017-Apr-21 10:00N 50°20' W 000°49'1020.4
2017-Apr-21 09:30N 50°11' W 000°43'1020.6
2017-Apr-21 09:00N 50°01' W 000°37'1020.5
2017-Apr-21 08:31N 49°52' W 000°31'1020.2
2017-Apr-21 08:00N 49°42' W 000°25'1019.4
2017-Apr-21 07:30N 49°33' W 000°20'1020.0
2017-Apr-21 07:01N 49°23' W 000°16'612.3
2017-Apr-21 06:30N 49°17' W 000°15'0 0.0
2017-Apr-21 06:01N 49°17' W 000°15'0 0.0
2017-Apr-21 05:30N 49°17' W 000°15'0 0.0
2017-Apr-21 05:01N 49°17' W 000°15'0 0.0
2017-Apr-21 04:31N 49°17' W 000°15'510.9
2017-Apr-21 04:01N 49°23' W 000°14'816.8
2017-Apr-21 03:30N 49°30' W 000°20'815.9
2017-Apr-21 03:00N 49°38' W 000°23'815.9
2017-Apr-21 02:30N 49°45' W 000°28'815.8
2017-Apr-21 02:01N 49°53' W 000°31'714.9
2017-Apr-21 01:30N 49°60' W 000°36'714.9
2017-Apr-21 01:00N 50°07' W 000°40'714.7
2017-Apr-21 00:30N 50°14' W 000°43'815.4
2017-Apr-21 00:00N 50°21' W 000°48'815.5
2017-Apr-20 23:28N 50°29' W 000°52'715.2
2017-Apr-20 23:00N 50°35' W 000°57'715.0
2017-Apr-20 22:30N 50°42' W 001°01'713.0
2017-Apr-20 22:00N 50°48' W 001°07'1 2.5
2017-Apr-20 21:31N 50°49' W 001°06'0 0.0
2017-Apr-20 21:00N 50°49' W 001°06'0 0.0
2017-Apr-20 20:31N 50°49' W 001°06'0 0.1
2017-Apr-20 20:00N 50°49' W 001°06'5 9.1
2017-Apr-20 19:30N 50°44' W 001°04'917.9
2017-Apr-20 19:00N 50°36' W 000°57'919.0
2017-Apr-20 18:30N 50°28' W 000°50'1919.0
2017-Apr-20 17:31N 50°11' W 000°39'619.8
2017-Apr-20 17:14N 50°05' W 000°36'519.8
2017-Apr-20 17:00N 50°01' W 000°34'1019.5
2017-Apr-20 16:31N 49°52' W 000°29'1019.7
2017-Apr-20 16:00N 49°43' W 000°23'1019.6
2017-Apr-20 15:31N 49°33' W 000°19'1019.7
2017-Apr-20 15:01N 49°24' W 000°16'6 6.5
2017-Apr-20 14:00N 49°17' W 000°15'0 0.0
2017-Apr-20 13:30N 49°17' W 000°15'0 0.0
2017-Apr-20 13:00N 49°17' W 000°15'1 1.3
2017-Apr-20 12:31N 49°18' W 000°15'917.9
2017-Apr-20 12:00N 49°27' W 000°18'1020.3
2017-Apr-20 11:30N 49°36' W 000°24'1020.1
2017-Apr-20 11:00N 49°45' W 000°30'1019.8
2017-Apr-20 10:30N 49°54' W 000°36'1119.7
2017-Apr-20 09:57N 50°04' W 000°44'2819.9
2017-Apr-20 08:33N 50°31' W 000°57'120.1
2017-Apr-20 08:31N 50°32' W 000°57'1019.7
2017-Apr-20 08:00N 50°41' W 001°00'714.7
2017-Apr-20 07:30N 50°47' W 001°07'1 2.8
2017-Apr-20 07:00N 50°49' W 001°06'0 0.0
2017-Apr-20 06:30N 50°49' W 001°06'0 0.0
2017-Apr-20 06:00N 50°49' W 001°06'0 0.2
2017-Apr-20 05:30N 50°49' W 001°06'3 7.0
2017-Apr-20 05:00N 50°45' W 001°05'816.6
2017-Apr-20 04:30N 50°38' W 000°58'815.6
2017-Apr-20 04:00N 50°31' W 000°53'2215.4
2017-Apr-20 02:33N 50°10' W 000°40'315.4
2017-Apr-20 02:20N 50°07' W 000°38'515.4
2017-Apr-20 02:00N 50°02' W 000°36'815.4
2017-Apr-20 01:30N 49°55' W 000°32'815.7
2017-Apr-20 01:00N 49°47' W 000°29'714.0
2017-Apr-20 00:30N 49°41' W 000°26'611.7
2017-Apr-20 00:00N 49°35' W 000°25'611.0
2017-Apr-19 23:30N 49°30' W 000°27'510.0
2017-Apr-19 23:01N 49°28' W 000°35'4 7.2
2017-Apr-19 22:31N 49°26' W 000°30'611.6
2017-Apr-19 22:01N 49°25' W 000°21'510.8
2017-Apr-19 21:31N 49°21' W 000°15'4 8.2
2017-Apr-19 21:00N 49°17' W 000°15'0 0.0
2017-Apr-19 20:30N 49°17' W 000°15'0 0.0
2017-Apr-19 20:00N 49°17' W 000°15'0 0.0
2017-Apr-19 19:30N 49°17' W 000°15'0 0.0
2017-Apr-19 19:00N 49°17' W 000°15'0 0.0
2017-Apr-19 18:30N 49°17' W 000°15'0 0.0
2017-Apr-19 18:00N 49°17' W 000°15'0 0.0
2017-Apr-19 17:30N 49°17' W 000°15'0 0.0
2017-Apr-19 17:00N 49°17' W 000°15'0 0.0
2017-Apr-19 16:30N 49°17' W 000°15'0 0.0
2017-Apr-19 16:00N 49°17' W 000°15'0 0.0
2017-Apr-19 15:30N 49°17' W 000°15'0 0.0
2017-Apr-19 15:00N 49°17' W 000°15'0 0.0
2017-Apr-19 14:30N 49°17' W 000°15'0 0.0
2017-Apr-19 13:30N 49°17' W 000°15'0 0.2
2017-Apr-19 13:00N 49°17' W 000°15'816.1
2017-Apr-19 12:31N 49°25' W 000°15'1020.4
2017-Apr-19 12:00N 49°35' W 000°20'1020.3
2017-Apr-19 11:31N 49°44' W 000°26'1020.4
2017-Apr-19 11:00N 49°54' W 000°31'1020.2
2017-Apr-19 10:30N 50°04' W 000°36'2319.9
2017-Apr-19 09:21N 50°25' W 000°50'819.6
2017-Apr-19 08:57N 50°32' W 000°55'919.6
2017-Apr-19 08:31N 50°40' W 000°58'816.1
2017-Apr-19 08:01N 50°47' W 001°06'2 3.9
2017-Apr-19 07:31N 50°49' W 001°06'0 0.0
2017-Apr-19 07:00N 50°49' W 001°06'0 0.0
2017-Apr-19 06:30N 50°49' W 001°06'0 0.0
2017-Apr-19 06:00N 50°49' W 001°06'0 0.2
2017-Apr-19 05:31N 50°49' W 001°06'3 6.8
2017-Apr-19 05:01N 50°45' W 001°05'917.2
2017-Apr-19 04:30N 50°38' W 000°59'815.7
2017-Apr-19 04:00N 50°30' W 000°55'3012.6
2017-Apr-19 01:40N 50°02' W 000°39'311.0
2017-Apr-19 01:24N 49°60' W 000°38'411.0
2017-Apr-19 01:00N 49°56' W 000°35'511.0
2017-Apr-19 00:30N 49°50' W 000°33'611.2
2017-Apr-19 00:00N 49°45' W 000°30'611.1
2017-Apr-18 23:30N 49°40' W 000°27'510.8
2017-Apr-18 23:00N 49°35' W 000°23'611.2
2017-Apr-18 22:30N 49°30' W 000°20'611.8
2017-Apr-18 22:00N 49°25' W 000°17'611.4
2017-Apr-18 21:31N 49°19' W 000°15'2 3.3
2017-Apr-18 21:00N 49°17' W 000°15'0 0.0
2017-Apr-18 20:30N 49°17' W 000°15'0 0.0
2017-Apr-18 20:00N 49°17' W 000°15'0 0.0
2017-Apr-18 19:30N 49°17' W 000°15'4 7.7
2017-Apr-18 19:01N 49°21' W 000°14'919.0
2017-Apr-18 18:30N 49°30' W 000°18'1019.5
2017-Apr-18 18:00N 49°40' W 000°22'1019.4
2017-Apr-18 17:31N 49°49' W 000°27'1019.6
2017-Apr-18 17:00N 49°58' W 000°31'1019.7
2017-Apr-18 16:30N 50°08' W 000°36'2120.0
2017-Apr-18 15:26N 50°27' W 000°49'920.0
2017-Apr-18 15:00N 50°35' W 000°54'918.4
2017-Apr-18 14:30N 50°43' W 001°02'6 6.1
2017-Apr-18 13:31N 50°49' W 001°06'0 0.0
2017-Apr-18 13:00N 50°49' W 001°06'0 0.0
2017-Apr-18 12:31N 50°49' W 001°06'0 0.9
2017-Apr-18 12:00N 50°49' W 001°07'510.2
2017-Apr-18 11:30N 50°44' W 001°04'918.3
2017-Apr-18 11:00N 50°36' W 000°56'1019.4
2017-Apr-18 10:28N 50°26' W 000°50'2819.7
2017-Apr-18 09:04N 49°60' W 000°38'120.3
2017-Apr-18 09:00N 49°59' W 000°37'1020.1
2017-Apr-18 08:30N 49°49' W 000°31'1020.4
2017-Apr-18 08:00N 49°40' W 000°26'1020.0
2017-Apr-18 07:31N 49°30' W 000°21'1020.3
2017-Apr-18 07:00N 49°21' W 000°15'4 7.3
2017-Apr-18 06:30N 49°17' W 000°15'0 0.0
2017-Apr-18 06:00N 49°17' W 000°15'0 0.0
2017-Apr-18 05:30N 49°17' W 000°15'0 0.0
2017-Apr-18 05:00N 49°17' W 000°15'0 0.3
2017-Apr-18 04:30N 49°17' W 000°15'714.7
2017-Apr-18 04:00N 49°25' W 000°14'917.0
2017-Apr-18 03:30N 49°32' W 000°19'917.3
2017-Apr-18 03:01N 49°41' W 000°24'917.7
2017-Apr-18 02:31N 49°49' W 000°29'917.8
2017-Apr-18 02:00N 49°57' W 000°34'917.9
2017-Apr-18 01:30N 50°05' W 000°38'2317.3
2017-Apr-18 00:11N 50°27' W 000°51'416.8
2017-Apr-17 23:55N 50°31' W 000°54'716.7
2017-Apr-17 23:30N 50°37' W 000°58'713.8
2017-Apr-17 23:00N 50°43' W 001°03'611.2
2017-Apr-17 22:31N 50°48' W 001°07'1 1.4
2017-Apr-17 22:00N 50°49' W 001°06'0 0.0
2017-Apr-17 21:31N 50°49' W 001°06'0 0.0
2017-Apr-17 21:01N 50°49' W 001°06'1 1.1
2017-Apr-17 20:30N 50°49' W 001°07'4 8.4
2017-Apr-17 20:01N 50°45' W 001°05'714.8
2017-Apr-17 19:30N 50°38' W 000°58'1020.2
2017-Apr-17 19:00N 50°29' W 000°53'2820.6
2017-Apr-17 17:38N 50°03' W 000°34'321.0
2017-Apr-17 17:30N 50°01' W 000°33'1020.8
2017-Apr-17 17:00N 49°51' W 000°27'1020.5
2017-Apr-17 16:30N 49°41' W 000°23'1020.4
2017-Apr-17 16:00N 49°31' W 000°19'1020.1
2017-Apr-17 15:30N 49°22' W 000°15'4 8.5
2017-Apr-17 15:01N 49°17' W 000°15'0 0.0
2017-Apr-17 14:30N 49°17' W 000°15'0 0.0
2017-Apr-17 13:30N 49°17' W 000°15'0 0.0
2017-Apr-17 13:01N 49°17' W 000°15'1 2.0
2017-Apr-17 12:31N 49°18' W 000°15'917.4
2017-Apr-17 12:00N 49°27' W 000°17'1019.1
2017-Apr-17 11:30N 49°36' W 000°23'1019.3
2017-Apr-17 11:01N 49°44' W 000°29'1019.5
2017-Apr-17 10:30N 49°53' W 000°35'1020.7
2017-Apr-17 10:00N 50°03' W 000°41'1620.6
2017-Apr-17 09:13N 50°19' W 000°49'920.4
2017-Apr-17 08:47N 50°27' W 000°52'620.1
2017-Apr-17 08:30N 50°32' W 000°55'1019.2
2017-Apr-17 08:01N 50°42' W 000°58'714.7
2017-Apr-17 07:30N 50°47' W 001°06'2 3.6
2017-Apr-17 07:00N 50°49' W 001°06'0 0.0
2017-Apr-17 06:30N 50°49' W 001°06'0 0.0
2017-Apr-17 06:00N 50°49' W 001°06'0 0.2
2017-Apr-17 05:31N 50°49' W 001°06'4 7.5
2017-Apr-17 05:00N 50°45' W 001°05'816.8
2017-Apr-17 04:31N 50°38' W 000°58'815.2
2017-Apr-17 04:00N 50°31' W 000°53'2915.3
2017-Apr-17 02:05N 50°03' W 000°37'215.3
2017-Apr-17 01:59N 50°02' W 000°37'715.2
2017-Apr-17 01:30N 49°55' W 000°33'613.1
2017-Apr-17 01:01N 49°49' W 000°30'611.0
2017-Apr-17 00:30N 49°44' W 000°27'611.2
2017-Apr-17 00:01N 49°39' W 000°23'611.6
2017-Apr-16 23:30N 49°33' W 000°20'611.3
2017-Apr-16 23:01N 49°28' W 000°17'611.0
2017-Apr-16 22:30N 49°22' W 000°15'510.4
2017-Apr-16 22:00N 49°17' W 000°15'0 0.1
2017-Apr-16 21:30N 49°17' W 000°15'0 0.0
2017-Apr-16 21:00N 49°17' W 000°15'0 0.0
2017-Apr-16 20:30N 49°17' W 000°15'0 0.0
2017-Apr-16 20:00N 49°17' W 000°15'0 0.3
2017-Apr-16 19:30N 49°17' W 000°15'815.8
2017-Apr-16 19:01N 49°25' W 000°16'1019.6
2017-Apr-16 18:31N 49°34' W 000°22'1019.5
2017-Apr-16 18:00N 49°43' W 000°28'1019.5
2017-Apr-16 17:30N 49°53' W 000°33'1019.3
2017-Apr-16 17:00N 50°02' W 000°38'1019.5
2017-Apr-16 16:31N 50°11' W 000°43'1019.8
2017-Apr-16 15:59N 50°21' W 000°47'1019.9
2017-Apr-16 15:30N 50°30' W 000°52'1019.4
2017-Apr-16 15:01N 50°39' W 000°58'1111.1
2017-Apr-16 14:00N 50°49' W 001°06'0 0.0
2017-Apr-16 13:30N 50°49' W 001°06'0 0.0
2017-Apr-16 13:00N 50°49' W 001°06'0 0.0
2017-Apr-16 12:30N 50°49' W 001°06'2 4.0
2017-Apr-16 12:00N 50°47' W 001°06'612.9
2017-Apr-16 11:30N 50°41' W 001°01'918.6
2017-Apr-16 11:00N 50°32' W 000°56'3218.3
2017-Apr-16 09:16N 50°03' W 000°36'519.4
2017-Apr-16 09:00N 49°59' W 000°33'1019.4
2017-Apr-16 08:30N 49°49' W 000°29'1019.7
2017-Apr-16 08:00N 49°40' W 000°25'1019.8
2017-Apr-16 07:31N 49°30' W 000°20'1019.9
2017-Apr-16 07:01N 49°21' W 000°15'4 7.4
2017-Apr-16 06:30N 49°17' W 000°15'0 0.0
2017-Apr-16 06:00N 49°17' W 000°15'  

Dump ship's entire track history